sensor_id;sensor_type;location;lat;lon;timestamp;temperature;humidity
9118;DHT22;4594;50.994;7.126;2023-05-16T00:00:19;16.00;36.30
9118;DHT22;4594;50.994;7.126;2023-05-16T00:02:45;16.00;36.40
9118;DHT22;4594;50.994;7.126;2023-05-16T00:05:11;16.00;36.50
9118;DHT22;4594;50.994;7.126;2023-05-16T00:07:45;15.90;36.50
9118;DHT22;4594;50.994;7.126;2023-05-16T00:10:12;15.90;36.80
9118;DHT22;4594;50.994;7.126;2023-05-16T00:12:38;15.90;36.70
9118;DHT22;4594;50.994;7.126;2023-05-16T00:15:08;15.80;36.70
9118;DHT22;4594;50.994;7.126;2023-05-16T00:17:37;15.80;37.00
9118;DHT22;4594;50.994;7.126;2023-05-16T00:20:03;15.70;36.80
9118;DHT22;4594;50.994;7.126;2023-05-16T00:22:32;15.70;36.90
9118;DHT22;4594;50.994;7.126;2023-05-16T00:24:58;15.60;36.90
9118;DHT22;4594;50.994;7.126;2023-05-16T00:27:23;15.60;37.00
9118;DHT22;4594;50.994;7.126;2023-05-16T00:29:49;15.50;37.00
9118;DHT22;4594;50.994;7.126;2023-05-16T00:32:17;15.50;37.20
9118;DHT22;4594;50.994;7.126;2023-05-16T00:34:43;15.50;37.40
9118;DHT22;4594;50.994;7.126;2023-05-16T00:37:08;15.40;37.40
9118;DHT22;4594;50.994;7.126;2023-05-16T00:39:34;15.40;37.60
9118;DHT22;4594;50.994;7.126;2023-05-16T00:42:00;15.30;37.70
9118;DHT22;4594;50.994;7.126;2023-05-16T00:44:25;15.20;37.70
9118;DHT22;4594;50.994;7.126;2023-05-16T00:46:52;15.20;37.90
9118;DHT22;4594;50.994;7.126;2023-05-16T00:49:18;15.20;38.10
9118;DHT22;4594;50.994;7.126;2023-05-16T00:51:44;15.20;38.20
9118;DHT22;4594;50.994;7.126;2023-05-16T00:54:10;15.20;38.40
9118;DHT22;4594;50.994;7.126;2023-05-16T00:56:36;15.10;38.50
9118;DHT22;4594;50.994;7.126;2023-05-16T00:59:02;15.00;38.50
9118;DHT22;4594;50.994;7.126;2023-05-16T01:01:28;15.00;38.60
9118;DHT22;4594;50.994;7.126;2023-05-16T01:03:54;15.10;38.90
9118;DHT22;4594;50.994;7.126;2023-05-16T01:06:20;14.90;38.80
9118;DHT22;4594;50.994;7.126;2023-05-16T01:08:46;14.90;39.00
9118;DHT22;4594;50.994;7.126;2023-05-16T01:11:29;14.90;39.10
9118;DHT22;4594;50.994;7.126;2023-05-16T01:20:12;14.80;39.50
9118;DHT22;4594;50.994;7.126;2023-05-16T01:28:04;14.70;39.60
9118;DHT22;4594;50.994;7.126;2023-05-16T01:30:35;14.60;39.50
9118;DHT22;4594;50.994;7.126;2023-05-16T01:33:03;14.60;39.80
9118;DHT22;4594;50.994;7.126;2023-05-16T01:35:29;14.60;39.80
9118;DHT22;4594;50.994;7.126;2023-05-16T01:38:24;14.50;39.90
9118;DHT22;4594;50.994;7.126;2023-05-16T01:40:57;14.50;40.20
9118;DHT22;4594;50.994;7.126;2023-05-16T01:43:33;14.40;39.90
9118;DHT22;4594;50.994;7.126;2023-05-16T01:46:07;14.40;40.20
9118;DHT22;4594;50.994;7.126;2023-05-16T01:48:50;14.30;40.20
9118;DHT22;4594;50.994;7.126;2023-05-16T01:51:23;14.30;40.40
9118;DHT22;4594;50.994;7.126;2023-05-16T01:53:58;14.30;40.50
9118;DHT22;4594;50.994;7.126;2023-05-16T01:56:30;14.30;40.50
9118;DHT22;4594;50.994;7.126;2023-05-16T01:58:58;14.20;40.50
9118;DHT22;4594;50.994;7.126;2023-05-16T02:01:26;14.20;40.70
9118;DHT22;4594;50.994;7.126;2023-05-16T02:03:52;14.20;40.90
9118;DHT22;4594;50.994;7.126;2023-05-16T02:06:17;14.10;41.00
9118;DHT22;4594;50.994;7.126;2023-05-16T02:08:43;14.10;41.20
9118;DHT22;4594;50.994;7.126;2023-05-16T02:11:09;14.20;41.40
9118;DHT22;4594;50.994;7.126;2023-05-16T02:13:34;14.10;41.50
9118;DHT22;4594;50.994;7.126;2023-05-16T02:16:00;14.10;41.60
9118;DHT22;4594;50.994;7.126;2023-05-16T02:18:26;14.10;41.80
9118;DHT22;4594;50.994;7.126;2023-05-16T02:20:52;14.00;41.90
9118;DHT22;4594;50.994;7.126;2023-05-16T02:23:18;14.00;42.00
9118;DHT22;4594;50.994;7.126;2023-05-16T02:25:43;14.00;42.30
9118;DHT22;4594;50.994;7.126;2023-05-16T02:28:09;14.00;42.20
9118;DHT22;4594;50.994;7.126;2023-05-16T02:30:35;14.00;42.30
9118;DHT22;4594;50.994;7.126;2023-05-16T02:33:00;13.90;42.40
9118;DHT22;4594;50.994;7.126;2023-05-16T02:35:26;13.90;42.50
9118;DHT22;4594;50.994;7.126;2023-05-16T02:37:52;13.90;42.70
9118;DHT22;4594;50.994;7.126;2023-05-16T02:40:17;13.90;42.80
9118;DHT22;4594;50.994;7.126;2023-05-16T02:42:43;13.90;43.00
9118;DHT22;4594;50.994;7.126;2023-05-16T02:45:09;13.80;43.00
9118;DHT22;4594;50.994;7.126;2023-05-16T02:47:35;13.80;43.10
9118;DHT22;4594;50.994;7.126;2023-05-16T02:50:01;13.80;43.10
9118;DHT22;4594;50.994;7.126;2023-05-16T02:52:27;13.70;43.20
9118;DHT22;4594;50.994;7.126;2023-05-16T02:54:53;13.70;43.30
9118;DHT22;4594;50.994;7.126;2023-05-16T02:57:19;13.70;43.40
9118;DHT22;4594;50.994;7.126;2023-05-16T02:59:45;13.70;43.50
9118;DHT22;4594;50.994;7.126;2023-05-16T03:02:11;13.60;43.50
9118;DHT22;4594;50.994;7.126;2023-05-16T03:04:36;13.60;43.50
9118;DHT22;4594;50.994;7.126;2023-05-16T03:07:02;13.50;43.60
9118;DHT22;4594;50.994;7.126;2023-05-16T03:09:28;13.50;43.60
9118;DHT22;4594;50.994;7.126;2023-05-16T03:11:53;13.50;43.60
9118;DHT22;4594;50.994;7.126;2023-05-16T03:14:19;13.40;43.60
9118;DHT22;4594;50.994;7.126;2023-05-16T03:16:45;13.60;43.80
9118;DHT22;4594;50.994;7.126;2023-05-16T03:19:11;13.30;43.60
9118;DHT22;4594;50.994;7.126;2023-05-16T03:21:38;13.30;43.70
9118;DHT22;4594;50.994;7.126;2023-05-16T03:24:04;13.30;43.80
9118;DHT22;4594;50.994;7.126;2023-05-16T03:26:30;13.20;43.80
9118;DHT22;4594;50.994;7.126;2023-05-16T03:28:55;13.20;43.70
9118;DHT22;4594;50.994;7.126;2023-05-16T03:31:21;13.20;43.80
9118;DHT22;4594;50.994;7.126;2023-05-16T03:33:47;13.10;43.70
9118;DHT22;4594;50.994;7.126;2023-05-16T03:36:12;13.00;43.60
9118;DHT22;4594;50.994;7.126;2023-05-16T03:38:38;13.00;43.70
9118;DHT22;4594;50.994;7.126;2023-05-16T03:41:04;12.90;43.80
9118;DHT22;4594;50.994;7.126;2023-05-16T03:43:30;12.90;44.00
9118;DHT22;4594;50.994;7.126;2023-05-16T03:45:56;12.80;44.10
9118;DHT22;4594;50.994;7.126;2023-05-16T03:48:21;12.80;44.20
9118;DHT22;4594;50.994;7.126;2023-05-16T03:50:47;12.80;44.40
9118;DHT22;4594;50.994;7.126;2023-05-16T03:53:13;12.70;44.50
9118;DHT22;4594;50.994;7.126;2023-05-16T03:55:38;12.70;44.70
9118;DHT22;4594;50.994;7.126;2023-05-16T03:58:04;12.70;44.90
9118;DHT22;4594;50.994;7.126;2023-05-16T04:00:30;12.60;45.00
9118;DHT22;4594;50.994;7.126;2023-05-16T04:02:55;12.60;45.10
9118;DHT22;4594;50.994;7.126;2023-05-16T04:05:21;12.60;45.30
9118;DHT22;4594;50.994;7.126;2023-05-16T04:07:47;12.60;45.40
9118;DHT22;4594;50.994;7.126;2023-05-16T04:10:13;12.60;45.50
9118;DHT22;4594;50.994;7.126;2023-05-16T04:12:39;12.60;45.70
9118;DHT22;4594;50.994;7.126;2023-05-16T04:15:05;12.60;45.90
9118;DHT22;4594;50.994;7.126;2023-05-16T04:17:32;12.60;46.00
9118;DHT22;4594;50.994;7.126;2023-05-16T04:19:58;12.60;46.10
9118;DHT22;4594;50.994;7.126;2023-05-16T04:22:25;12.60;46.20
9118;DHT22;4594;50.994;7.126;2023-05-16T04:24:50;12.60;46.30
9118;DHT22;4594;50.994;7.126;2023-05-16T04:27:16;12.60;46.80
9118;DHT22;4594;50.994;7.126;2023-05-16T04:29:42;12.60;46.70
9118;DHT22;4594;50.994;7.126;2023-05-16T04:32:09;12.60;46.70
9118;DHT22;4594;50.994;7.126;2023-05-16T04:34:35;12.60;46.80
9118;DHT22;4594;50.994;7.126;2023-05-16T04:37:05;12.60;46.90
9118;DHT22;4594;50.994;7.126;2023-05-16T04:39:32;12.60;46.90
9118;DHT22;4594;50.994;7.126;2023-05-16T04:41:59;12.70;47.10
9118;DHT22;4594;50.994;7.126;2023-05-16T04:44:25;12.60;47.10
9118;DHT22;4594;50.994;7.126;2023-05-16T04:46:51;12.50;47.00
9118;DHT22;4594;50.994;7.126;2023-05-16T04:49:20;12.50;47.10
9118;DHT22;4594;50.994;7.126;2023-05-16T04:51:47;12.50;47.20
9118;DHT22;4594;50.994;7.126;2023-05-16T04:54:13;12.50;47.20
9118;DHT22;4594;50.994;7.126;2023-05-16T04:56:39;12.50;47.60
9118;DHT22;4594;50.994;7.126;2023-05-16T04:59:05;12.50;47.50
9118;DHT22;4594;50.994;7.126;2023-05-16T05:01:30;12.50;47.60
9118;DHT22;4594;50.994;7.126;2023-05-16T05:03:56;12.50;47.70
9118;DHT22;4594;50.994;7.126;2023-05-16T05:06:22;12.50;48.00
9118;DHT22;4594;50.994;7.126;2023-05-16T05:08:48;12.50;48.20
9118;DHT22;4594;50.994;7.126;2023-05-16T05:11:13;12.50;48.40
9118;DHT22;4594;50.994;7.126;2023-05-16T05:13:39;12.60;48.60
9118;DHT22;4594;50.994;7.126;2023-05-16T05:16:05;12.60;48.70
9118;DHT22;4594;50.994;7.126;2023-05-16T05:18:31;12.60;48.70
9118;DHT22;4594;50.994;7.126;2023-05-16T05:20:57;12.60;48.60
9118;DHT22;4594;50.994;7.126;2023-05-16T05:23:23;12.60;48.50
9118;DHT22;4594;50.994;7.126;2023-05-16T05:25:49;12.70;48.40
9118;DHT22;4594;50.994;7.126;2023-05-16T05:28:15;12.70;48.40
9118;DHT22;4594;50.994;7.126;2023-05-16T05:30:40;12.70;48.50
9118;DHT22;4594;50.994;7.126;2023-05-16T05:33:06;12.70;48.60
9118;DHT22;4594;50.994;7.126;2023-05-16T05:35:32;12.70;48.70
9118;DHT22;4594;50.994;7.126;2023-05-16T05:37:58;12.80;48.90
9118;DHT22;4594;50.994;7.126;2023-05-16T05:40:23;12.80;49.10
9118;DHT22;4594;50.994;7.126;2023-05-16T05:42:49;12.90;49.50
9118;DHT22;4594;50.994;7.126;2023-05-16T05:45:15;13.00;49.60
9118;DHT22;4594;50.994;7.126;2023-05-16T05:47:41;13.10;49.50
9118;DHT22;4594;50.994;7.126;2023-05-16T05:50:08;13.10;49.10
9118;DHT22;4594;50.994;7.126;2023-05-16T05:52:36;13.10;48.80
9118;DHT22;4594;50.994;7.126;2023-05-16T05:55:02;13.20;48.70
9118;DHT22;4594;50.994;7.126;2023-05-16T05:57:28;13.20;48.50
9118;DHT22;4594;50.994;7.126;2023-05-16T05:59:54;13.20;48.40
9118;DHT22;4594;50.994;7.126;2023-05-16T06:02:20;13.20;48.40
9118;DHT22;4594;50.994;7.126;2023-05-16T06:04:46;13.20;48.60
9118;DHT22;4594;50.994;7.126;2023-05-16T06:07:11;13.20;49.20
9118;DHT22;4594;50.994;7.126;2023-05-16T06:09:37;13.40;50.50
9118;DHT22;4594;50.994;7.126;2023-05-16T06:12:03;13.60;51.40
9118;DHT22;4594;50.994;7.126;2023-05-16T06:14:29;13.90;52.30
9118;DHT22;4594;50.994;7.126;2023-05-16T06:16:55;14.30;53.00
9118;DHT22;4594;50.994;7.126;2023-05-16T06:19:20;14.70;53.30
9118;DHT22;4594;50.994;7.126;2023-05-16T06:21:46;15.10;53.70
9118;DHT22;4594;50.994;7.126;2023-05-16T06:24:12;15.50;54.20
9118;DHT22;4594;50.994;7.126;2023-05-16T06:26:37;16.00;54.20
9118;DHT22;4594;50.994;7.126;2023-05-16T06:29:03;16.40;53.80
9118;DHT22;4594;50.994;7.126;2023-05-16T06:31:30;16.80;53.40
9118;DHT22;4594;50.994;7.126;2023-05-16T06:33:56;17.20;53.30
9118;DHT22;4594;50.994;7.126;2023-05-16T06:36:21;17.60;54.00
9118;DHT22;4594;50.994;7.126;2023-05-16T06:38:48;18.10;54.70
9118;DHT22;4594;50.994;7.126;2023-05-16T06:41:14;18.40;54.10
9118;DHT22;4594;50.994;7.126;2023-05-16T06:43:40;18.90;54.00
9118;DHT22;4594;50.994;7.126;2023-05-16T06:46:06;19.40;53.70
9118;DHT22;4594;50.994;7.126;2023-05-16T06:48:32;20.00;53.70
9118;DHT22;4594;50.994;7.126;2023-05-16T06:50:58;20.30;53.90
9118;DHT22;4594;50.994;7.126;2023-05-16T06:53:24;20.90;53.80
9118;DHT22;4594;50.994;7.126;2023-05-16T06:55:50;21.20;53.40
9118;DHT22;4594;50.994;7.126;2023-05-16T06:58:16;21.60;52.30
9118;DHT22;4594;50.994;7.126;2023-05-16T07:00:41;22.00;51.20
9118;DHT22;4594;50.994;7.126;2023-05-16T07:03:08;22.40;51.00
9118;DHT22;4594;50.994;7.126;2023-05-16T07:05:34;22.50;50.00
9118;DHT22;4594;50.994;7.126;2023-05-16T07:07:59;22.70;49.10
9118;DHT22;4594;50.994;7.126;2023-05-16T07:10:25;22.90;48.70
9118;DHT22;4594;50.994;7.126;2023-05-16T07:12:51;23.00;48.60
9118;DHT22;4594;50.994;7.126;2023-05-16T07:15:17;23.40;48.50
9118;DHT22;4594;50.994;7.126;2023-05-16T07:17:43;23.60;48.60
9118;DHT22;4594;50.994;7.126;2023-05-16T07:20:08;23.90;48.40
9118;DHT22;4594;50.994;7.126;2023-05-16T07:22:38;24.20;47.80
9118;DHT22;4594;50.994;7.126;2023-05-16T07:25:04;24.30;47.30
9118;DHT22;4594;50.994;7.126;2023-05-16T07:27:30;24.60;47.20
9118;DHT22;4594;50.994;7.126;2023-05-16T07:29:56;24.90;46.20
9118;DHT22;4594;50.994;7.126;2023-05-16T07:32:22;24.90;44.90
9118;DHT22;4594;50.994;7.126;2023-05-16T07:34:48;25.10;44.10
9118;DHT22;4594;50.994;7.126;2023-05-16T07:37:14;24.90;43.80
9118;DHT22;4594;50.994;7.126;2023-05-16T07:39:40;25.10;43.70
9118;DHT22;4594;50.994;7.126;2023-05-16T07:42:07;25.20;43.60
9118;DHT22;4594;50.994;7.126;2023-05-16T07:44:33;25.30;43.70
9118;DHT22;4594;50.994;7.126;2023-05-16T07:47:00;25.50;43.80
9118;DHT22;4594;50.994;7.126;2023-05-16T07:49:26;25.80;44.20
9118;DHT22;4594;50.994;7.126;2023-05-16T07:51:51;26.00;43.80
9118;DHT22;4594;50.994;7.126;2023-05-16T07:54:17;26.30;43.30
9118;DHT22;4594;50.994;7.126;2023-05-16T07:56:43;26.40;42.50
9118;DHT22;4594;50.994;7.126;2023-05-16T07:59:09;26.40;41.70
9118;DHT22;4594;50.994;7.126;2023-05-16T08:01:35;26.30;41.00
9118;DHT22;4594;50.994;7.126;2023-05-16T08:04:01;26.00;40.20
9118;DHT22;4594;50.994;7.126;2023-05-16T08:06:26;25.80;39.60
9118;DHT22;4594;50.994;7.126;2023-05-16T08:08:52;25.30;39.00
9118;DHT22;4594;50.994;7.126;2023-05-16T08:11:18;25.10;39.40
9118;DHT22;4594;50.994;7.126;2023-05-16T08:13:47;24.80;39.00
9118;DHT22;4594;50.994;7.126;2023-05-16T08:16:13;24.60;39.20
9118;DHT22;4594;50.994;7.126;2023-05-16T08:18:39;24.40;38.80
9118;DHT22;4594;50.994;7.126;2023-05-16T08:21:06;24.30;39.20
9118;DHT22;4594;50.994;7.126;2023-05-16T08:23:33;24.30;39.60
9118;DHT22;4594;50.994;7.126;2023-05-16T08:26:00;24.30;40.00
9118;DHT22;4594;50.994;7.126;2023-05-16T08:28:27;24.60;40.60
9118;DHT22;4594;50.994;7.126;2023-05-16T08:30:53;24.90;40.80
9118;DHT22;4594;50.994;7.126;2023-05-16T08:33:19;25.30;41.10
9118;DHT22;4594;50.994;7.126;2023-05-16T08:35:45;25.70;41.50
9118;DHT22;4594;50.994;7.126;2023-05-16T08:38:11;26.10;41.30
9118;DHT22;4594;50.994;7.126;2023-05-16T08:40:36;26.40;41.00
9118;DHT22;4594;50.994;7.126;2023-05-16T08:43:02;26.80;41.30
9118;DHT22;4594;50.994;7.126;2023-05-16T08:45:30;27.20;41.00
9118;DHT22;4594;50.994;7.126;2023-05-16T08:47:56;27.50;40.70
9118;DHT22;4594;50.994;7.126;2023-05-16T08:50:25;27.80;40.40
9118;DHT22;4594;50.994;7.126;2023-05-16T08:52:56;28.20;40.50
9118;DHT22;4594;50.994;7.126;2023-05-16T08:55:22;28.50;40.30
9118;DHT22;4594;50.994;7.126;2023-05-16T08:57:51;28.90;39.70
9118;DHT22;4594;50.994;7.126;2023-05-16T09:00:17;29.10;39.50
9118;DHT22;4594;50.994;7.126;2023-05-16T09:02:44;29.40;38.90
9118;DHT22;4594;50.994;7.126;2023-05-16T09:05:12;29.60;38.60
9118;DHT22;4594;50.994;7.126;2023-05-16T09:07:40;29.80;38.50
9118;DHT22;4594;50.994;7.126;2023-05-16T09:10:07;30.00;38.60
9118;DHT22;4594;50.994;7.126;2023-05-16T09:12:34;30.10;38.00
9118;DHT22;4594;50.994;7.126;2023-05-16T09:15:05;29.90;37.00
9118;DHT22;4594;50.994;7.126;2023-05-16T09:17:42;29.80;35.80
9118;DHT22;4594;50.994;7.126;2023-05-16T09:22:52;29.20;35.90
9118;DHT22;4594;50.994;7.126;2023-05-16T09:25:24;28.90;34.70
9118;DHT22;4594;50.994;7.126;2023-05-16T09:27:55;28.50;35.10
9118;DHT22;4594;50.994;7.126;2023-05-16T09:30:22;28.00;34.40
9118;DHT22;4594;50.994;7.126;2023-05-16T09:32:53;27.60;34.80
9118;DHT22;4594;50.994;7.126;2023-05-16T09:35:19;27.30;35.10
9118;DHT22;4594;50.994;7.126;2023-05-16T09:37:47;27.10;35.20
9118;DHT22;4594;50.994;7.126;2023-05-16T09:40:13;27.00;36.00
9118;DHT22;4594;50.994;7.126;2023-05-16T09:42:41;27.10;36.30
9118;DHT22;4594;50.994;7.126;2023-05-16T09:45:14;27.40;36.60
9118;DHT22;4594;50.994;7.126;2023-05-16T09:47:41;27.70;36.30
9118;DHT22;4594;50.994;7.126;2023-05-16T09:50:15;28.00;37.10
9118;DHT22;4594;50.994;7.126;2023-05-16T09:52:42;28.30;36.40
9118;DHT22;4594;50.994;7.126;2023-05-16T09:55:09;28.50;36.10
9118;DHT22;4594;50.994;7.126;2023-05-16T09:57:38;28.50;35.40
9118;DHT22;4594;50.994;7.126;2023-05-16T10:00:11;28.30;34.60
9118;DHT22;4594;50.994;7.126;2023-05-16T10:02:37;28.10;34.30
9118;DHT22;4594;50.994;7.126;2023-05-16T10:05:04;27.80;34.60
9118;DHT22;4594;50.994;7.126;2023-05-16T10:07:31;27.50;34.70
9118;DHT22;4594;50.994;7.126;2023-05-16T10:10:06;27.40;35.00
9118;DHT22;4594;50.994;7.126;2023-05-16T10:12:33;27.40;34.70
9118;DHT22;4594;50.994;7.126;2023-05-16T10:15:03;27.50;35.50
9118;DHT22;4594;50.994;7.126;2023-05-16T10:17:32;27.70;34.90
9118;DHT22;4594;50.994;7.126;2023-05-16T10:20:04;27.80;35.30
9118;DHT22;4594;50.994;7.126;2023-05-16T10:22:34;28.00;35.50
9118;DHT22;4594;50.994;7.126;2023-05-16T10:25:19;28.10;34.80
9118;DHT22;4594;50.994;7.126;2023-05-16T10:27:53;28.10;33.40
9118;DHT22;4594;50.994;7.126;2023-05-16T10:30:20;27.90;33.50
9118;DHT22;4594;50.994;7.126;2023-05-16T10:32:46;27.50;32.90
9118;DHT22;4594;50.994;7.126;2023-05-16T10:35:14;27.20;33.10
9118;DHT22;4594;50.994;7.126;2023-05-16T10:37:41;27.10;33.90
9118;DHT22;4594;50.994;7.126;2023-05-16T10:40:08;27.20;34.40
9118;DHT22;4594;50.994;7.126;2023-05-16T10:42:35;27.40;34.60
9118;DHT22;4594;50.994;7.126;2023-05-16T10:45:17;27.70;34.60
9118;DHT22;4594;50.994;7.126;2023-05-16T10:48:00;27.80;33.50
9118;DHT22;4594;50.994;7.126;2023-05-16T10:50:42;27.80;33.30
9118;DHT22;4594;50.994;7.126;2023-05-16T11:01:34;27.10;32.80
9118;DHT22;4594;50.994;7.126;2023-05-16T11:04:00;26.80;31.80
9118;DHT22;4594;50.994;7.126;2023-05-16T11:06:50;26.40;32.30
9118;DHT22;4594;50.994;7.126;2023-05-16T11:09:22;26.20;32.10
9118;DHT22;4594;50.994;7.126;2023-05-16T11:14:37;26.40;33.90
9118;DHT22;4594;50.994;7.126;2023-05-16T11:17:22;26.60;33.00
9118;DHT22;4594;50.994;7.126;2023-05-16T11:19:58;26.90;33.50
9118;DHT22;4594;50.994;7.126;2023-05-16T11:22:33;27.20;33.10
9118;DHT22;4594;50.994;7.126;2023-05-16T11:25:08;27.40;32.70
9118;DHT22;4594;50.994;7.126;2023-05-16T11:27:43;27.50;33.60
9118;DHT22;4594;50.994;7.126;2023-05-16T11:30:12;27.70;33.10
9118;DHT22;4594;50.994;7.126;2023-05-16T11:32:45;27.70;33.30
9118;DHT22;4594;50.994;7.126;2023-05-16T11:35:14;27.70;32.60
9118;DHT22;4594;50.994;7.126;2023-05-16T11:37:42;27.60;32.70
9118;DHT22;4594;50.994;7.126;2023-05-16T11:40:10;27.50;32.50
9118;DHT22;4594;50.994;7.126;2023-05-16T11:42:42;27.30;32.10
9118;DHT22;4594;50.994;7.126;2023-05-16T11:45:13;27.10;31.90
9118;DHT22;4594;50.994;7.126;2023-05-16T11:47:41;26.80;31.60
9118;DHT22;4594;50.994;7.126;2023-05-16T11:50:13;26.50;31.60
9118;DHT22;4594;50.994;7.126;2023-05-16T11:52:45;26.30;31.20
9118;DHT22;4594;50.994;7.126;2023-05-16T11:55:13;26.00;31.20
9118;DHT22;4594;50.994;7.126;2023-05-16T11:57:41;25.70;31.20
9118;DHT22;4594;50.994;7.126;2023-05-16T12:00:17;25.40;31.10
9118;DHT22;4594;50.994;7.126;2023-05-16T12:02:45;25.10;30.60
9118;DHT22;4594;50.994;7.126;2023-05-16T12:05:15;24.80;31.00
9118;DHT22;4594;50.994;7.126;2023-05-16T12:07:42;24.50;30.80
9118;DHT22;4594;50.994;7.126;2023-05-16T12:10:11;24.20;30.80
9118;DHT22;4594;50.994;7.126;2023-05-16T12:12:46;23.90;30.50
9118;DHT22;4594;50.994;7.126;2023-05-16T12:15:13;23.60;30.50
9118;DHT22;4594;50.994;7.126;2023-05-16T12:17:40;23.40;30.60
9118;DHT22;4594;50.994;7.126;2023-05-16T12:20:08;23.10;30.80
9118;DHT22;4594;50.994;7.126;2023-05-16T12:22:44;22.90;30.40
9118;DHT22;4594;50.994;7.126;2023-05-16T12:25:29;22.70;30.40
9118;DHT22;4594;50.994;7.126;2023-05-16T12:28:02;22.60;30.30
9118;DHT22;4594;50.994;7.126;2023-05-16T12:30:31;22.40;30.70
9118;DHT22;4594;50.994;7.126;2023-05-16T12:33:03;22.30;30.70
9118;DHT22;4594;50.994;7.126;2023-05-16T12:35:36;22.30;30.70
9118;DHT22;4594;50.994;7.126;2023-05-16T12:38:08;22.20;30.90
9118;DHT22;4594;50.994;7.126;2023-05-16T12:40:36;22.20;30.80
9118;DHT22;4594;50.994;7.126;2023-05-16T12:43:18;22.20;30.90
9118;DHT22;4594;50.994;7.126;2023-05-16T12:45:55;22.10;30.70
9118;DHT22;4594;50.994;7.126;2023-05-16T12:48:22;22.10;30.40
9118;DHT22;4594;50.994;7.126;2023-05-16T12:50:54;22.00;30.70
9118;DHT22;4594;50.994;7.126;2023-05-16T12:53:20;21.90;30.70
9118;DHT22;4594;50.994;7.126;2023-05-16T12:55:46;22.00;30.80
9118;DHT22;4594;50.994;7.126;2023-05-16T12:58:11;21.80;30.80
9118;DHT22;4594;50.994;7.126;2023-05-16T13:00:37;21.80;30.80
9118;DHT22;4594;50.994;7.126;2023-05-16T13:03:04;21.80;30.90
9118;DHT22;4594;50.994;7.126;2023-05-16T13:05:31;21.70;31.00
9118;DHT22;4594;50.994;7.126;2023-05-16T13:07:57;21.80;31.20
9118;DHT22;4594;50.994;7.126;2023-05-16T13:10:23;21.80;31.10
9118;DHT22;4594;50.994;7.126;2023-05-16T13:12:50;21.70;31.00
9118;DHT22;4594;50.994;7.126;2023-05-16T13:15:15;21.70;31.00
9118;DHT22;4594;50.994;7.126;2023-05-16T13:17:42;21.70;31.10
9118;DHT22;4594;50.994;7.126;2023-05-16T13:20:09;21.70;31.10
9118;DHT22;4594;50.994;7.126;2023-05-16T13:22:42;21.60;31.10
9118;DHT22;4594;50.994;7.126;2023-05-16T13:25:09;21.70;31.00
9118;DHT22;4594;50.994;7.126;2023-05-16T13:27:35;21.50;31.00
9118;DHT22;4594;50.994;7.126;2023-05-16T13:30:01;21.40;30.80
9118;DHT22;4594;50.994;7.126;2023-05-16T13:32:28;21.30;30.70
9118;DHT22;4594;50.994;7.126;2023-05-16T13:34:54;21.20;30.60
9118;DHT22;4594;50.994;7.126;2023-05-16T13:37:20;21.10;30.40
9118;DHT22;4594;50.994;7.126;2023-05-16T13:39:48;21.50;30.80
9118;DHT22;4594;50.994;7.126;2023-05-16T13:42:14;20.80;30.30
9118;DHT22;4594;50.994;7.126;2023-05-16T13:44:40;20.60;30.10
9118;DHT22;4594;50.994;7.126;2023-05-16T13:47:07;20.50;30.00
9118;DHT22;4594;50.994;7.126;2023-05-16T13:49:33;20.30;30.00
9118;DHT22;4594;50.994;7.126;2023-05-16T13:51:59;20.20;30.00
9118;DHT22;4594;50.994;7.126;2023-05-16T13:54:25;20.20;30.00
9118;DHT22;4594;50.994;7.126;2023-05-16T13:56:51;20.00;30.00
9118;DHT22;4594;50.994;7.126;2023-05-16T13:59:17;20.00;30.00
9118;DHT22;4594;50.994;7.126;2023-05-16T14:01:43;19.90;29.90
9118;DHT22;4594;50.994;7.126;2023-05-16T14:04:09;19.80;29.90
9118;DHT22;4594;50.994;7.126;2023-05-16T14:06:34;19.80;30.00
9118;DHT22;4594;50.994;7.126;2023-05-16T14:09:00;19.70;30.00
9118;DHT22;4594;50.994;7.126;2023-05-16T14:11:26;19.70;30.00
9118;DHT22;4594;50.994;7.126;2023-05-16T14:13:54;19.60;30.00
9118;DHT22;4594;50.994;7.126;2023-05-16T14:16:21;19.60;30.00
9118;DHT22;4594;50.994;7.126;2023-05-16T14:18:47;19.70;30.00
9118;DHT22;4594;50.994;7.126;2023-05-16T14:21:13;19.50;29.90
9118;DHT22;4594;50.994;7.126;2023-05-16T14:23:38;19.40;29.80
9118;DHT22;4594;50.994;7.126;2023-05-16T14:26:04;19.50;29.70
9118;DHT22;4594;50.994;7.126;2023-05-16T14:28:30;19.50;29.70
9118;DHT22;4594;50.994;7.126;2023-05-16T14:31:00;19.40;29.70
9118;DHT22;4594;50.994;7.126;2023-05-16T14:33:26;19.40;29.80
9118;DHT22;4594;50.994;7.126;2023-05-16T14:35:52;19.40;29.80
9118;DHT22;4594;50.994;7.126;2023-05-16T14:38:18;19.30;29.70
9118;DHT22;4594;50.994;7.126;2023-05-16T14:40:45;19.30;29.70
9118;DHT22;4594;50.994;7.126;2023-05-16T14:43:11;19.30;29.70
9118;DHT22;4594;50.994;7.126;2023-05-16T14:45:37;19.30;29.70
9118;DHT22;4594;50.994;7.126;2023-05-16T14:48:06;19.30;29.70
9118;DHT22;4594;50.994;7.126;2023-05-16T14:50:32;19.20;29.70
9118;DHT22;4594;50.994;7.126;2023-05-16T14:52:58;19.10;29.60
9118;DHT22;4594;50.994;7.126;2023-05-16T14:55:23;19.10;29.60
9118;DHT22;4594;50.994;7.126;2023-05-16T14:57:49;19.10;29.70
9118;DHT22;4594;50.994;7.126;2023-05-16T15:00:16;19.00;29.70
9118;DHT22;4594;50.994;7.126;2023-05-16T15:02:42;19.00;29.70
9118;DHT22;4594;50.994;7.126;2023-05-16T15:05:09;19.00;29.70
9118;DHT22;4594;50.994;7.126;2023-05-16T15:07:34;19.00;29.70
9118;DHT22;4594;50.994;7.126;2023-05-16T15:10:00;19.00;29.70
9118;DHT22;4594;50.994;7.126;2023-05-16T15:12:26;19.00;29.70
9118;DHT22;4594;50.994;7.126;2023-05-16T15:14:51;18.90;29.70
9118;DHT22;4594;50.994;7.126;2023-05-16T15:17:17;18.90;29.80
9118;DHT22;4594;50.994;7.126;2023-05-16T15:19:43;19.00;29.80
9118;DHT22;4594;50.994;7.126;2023-05-16T15:22:09;18.90;29.80
9118;DHT22;4594;50.994;7.126;2023-05-16T15:24:35;18.80;29.80
9118;DHT22;4594;50.994;7.126;2023-05-16T15:27:01;18.80;29.80
9118;DHT22;4594;50.994;7.126;2023-05-16T15:29:29;18.70;29.80
9118;DHT22;4594;50.994;7.126;2023-05-16T15:31:56;18.80;29.80
9118;DHT22;4594;50.994;7.126;2023-05-16T15:34:22;18.80;29.90
9118;DHT22;4594;50.994;7.126;2023-05-16T15:36:47;18.80;30.00
9118;DHT22;4594;50.994;7.126;2023-05-16T15:39:13;18.80;30.00
9118;DHT22;4594;50.994;7.126;2023-05-16T15:41:39;18.90;30.00
9118;DHT22;4594;50.994;7.126;2023-05-16T15:44:05;18.90;30.30
9118;DHT22;4594;50.994;7.126;2023-05-16T15:46:30;18.90;30.00
9118;DHT22;4594;50.994;7.126;2023-05-16T15:48:57;19.00;30.10
9118;DHT22;4594;50.994;7.126;2023-05-16T15:51:23;18.90;30.10
9118;DHT22;4594;50.994;7.126;2023-05-16T15:53:49;19.00;30.20
9118;DHT22;4594;50.994;7.126;2023-05-16T15:56:15;19.10;30.20
9118;DHT22;4594;50.994;7.126;2023-05-16T15:58:41;19.10;30.30
9118;DHT22;4594;50.994;7.126;2023-05-16T16:01:08;19.20;30.40
9118;DHT22;4594;50.994;7.126;2023-05-16T16:03:33;19.20;30.40
9118;DHT22;4594;50.994;7.126;2023-05-16T16:05:59;19.30;30.30
9118;DHT22;4594;50.994;7.126;2023-05-16T16:08:25;19.30;30.40
9118;DHT22;4594;50.994;7.126;2023-05-16T16:10:51;19.30;30.30
9118;DHT22;4594;50.994;7.126;2023-05-16T16:13:16;19.30;30.30
9118;DHT22;4594;50.994;7.126;2023-05-16T16:15:42;19.30;30.30
9118;DHT22;4594;50.994;7.126;2023-05-16T16:18:07;19.50;30.50
9118;DHT22;4594;50.994;7.126;2023-05-16T16:20:33;19.30;30.20
9118;DHT22;4594;50.994;7.126;2023-05-16T16:22:59;19.30;30.20
9118;DHT22;4594;50.994;7.126;2023-05-16T16:25:25;19.40;30.20
9118;DHT22;4594;50.994;7.126;2023-05-16T16:27:51;19.20;30.00